Time;durP1;ratioP1;P1;durP2;ratioP2;P2;SDS_P1;SDS_P2;PMS_P1;PMS_P2;Temp;Humidity;BMP_temperature;BMP_pressure;BME280_temperature;BME280_humidity;BME280_pressure;Samples;Min_cycle;Max_cycle;Signal;HPM_P1;HPM_P2
2021/06/21 00:01:43;;;;;;;17.33;12.57;;;20.10;99.90;;;;;;5054619;28;20041;-71
2021/06/21 00:04:09;;;;;;;15.40;11.77;;;20.00;99.90;;;;;;5041803;28;20047;-70
2021/06/21 00:06:36;;;;;;;14.10;11.68;;;19.90;99.90;;;;;;5034945;28;20527;-71
2021/06/21 00:09:03;;;;;;;11.43;10.23;;;19.90;99.90;;;;;;5035749;28;20029;-70
2021/06/21 00:11:29;;;;;;;13.52;12.13;;;19.90;99.90;;;;;;5040183;28;20483;-70
2021/06/21 00:13:54;;;;;;;13.88;10.38;;;19.90;99.90;;;;;;5034681;28;20032;-70
2021/06/21 00:16:20;;;;;;;15.52;11.15;;;19.90;99.90;;;;;;5050307;28;20029;-71
2021/06/21 00:18:46;;;;;;;16.00;11.98;;;19.90;99.90;;;;;;5054235;28;20031;-71
2021/06/21 00:21:11;;;;;;;12.65;11.35;;;19.80;99.90;;;;;;5053980;28;20457;-70
2021/06/21 00:23:37;;;;;;;17.08;12.90;;;19.80;99.90;;;;;;5052775;28;20394;-70
2021/06/21 00:26:03;;;;;;;14.77;11.27;;;19.80;99.90;;;;;;5054518;28;20032;-70
2021/06/21 00:28:28;;;;;;;14.57;12.35;;;19.80;99.90;;;;;;5054371;28;20064;-70
2021/06/21 00:30:54;;;;;;;13.88;11.43;;;19.80;99.90;;;;;;5054283;28;20486;-70
2021/06/21 00:33:19;;;;;;;16.45;11.07;;;19.80;99.90;;;;;;5054157;28;20032;-72
2021/06/21 00:35:45;;;;;;;17.05;11.05;;;19.80;99.90;;;;;;5053929;28;20082;-70
2021/06/21 00:38:11;;;;;;;15.52;12.05;;;19.70;99.90;;;;;;5052831;28;20027;-71
2021/06/21 00:40:38;;;;;;;15.02;11.45;;;19.70;99.90;;;;;;5052211;28;20390;-70
2021/06/21 00:43:04;;;;;;;15.20;10.55;;;19.70;99.90;;;;;;5052619;28;20036;-70
2021/06/21 00:45:31;;;;;;;13.98;10.77;;;19.70;99.90;;;;;;5052465;28;20033;-70
2021/06/21 00:47:56;;;;;;;12.88;10.00;;;19.70;99.90;;;;;;5053484;28;20025;-70
2021/06/21 00:50:25;;;;;;;14.93;10.27;;;19.70;99.90;;;;;;5051806;28;20021;-70
2021/06/21 00:52:54;;;;;;;12.48;11.13;;;19.70;99.90;;;;;;5053960;28;20045;-71
2021/06/21 00:55:20;;;;;;;14.80;10.60;;;19.80;99.90;;;;;;5053470;28;20092;-70
2021/06/21 00:57:46;;;;;;;12.60;10.82;;;19.80;99.90;;;;;;5053750;28;20482;-70
2021/06/21 01:00:18;;;;;;;11.90;10.70;;;19.90;99.90;;;;;;5052114;28;20029;-70
2021/06/21 01:02:44;;;;;;;14.40;10.20;;;19.80;99.90;;;;;;5053687;28;20061;-70
2021/06/21 01:05:12;;;;;;;15.32;10.90;;;19.90;99.90;;;;;;5051608;28;20421;-70
2021/06/21 01:07:38;;;;;;;13.30;10.95;;;19.80;99.90;;;;;;5052369;28;20021;-70
2021/06/21 01:10:07;;;;;;;12.13;9.77;;;19.80;99.90;;;;;;5036708;28;20040;-70
2021/06/21 01:12:47;;;;;;;18.60;11.32;;;19.90;99.90;;;;;;5036592;28;20026;-70
2021/06/21 01:15:20;;;;;;;15.43;9.88;;;20.00;99.90;;;;;;5033423;28;20025;-70
2021/06/21 01:17:58;;;;;;;;;;;20.00;99.90;;;;;;5032751;28;20470;-70
2021/06/21 01:20:49;;;;;;;10.45;9.35;;;20.10;99.90;;;;;;5033413;28;19908;-70
2021/06/21 01:23:41;;;;;;;15.60;11.15;;;20.20;99.90;;;;;;5032111;28;20043;-70
2021/06/21 01:26:15;;;;;;;14.93;8.90;;;20.20;99.90;;;;;;5032493;28;20013;-70
2021/06/21 01:28:56;;;;;;;16.88;9.90;;;20.20;99.90;;;;;;5044386;28;20035;-70
2021/06/21 01:31:24;;;;;;;12.63;10.10;;;20.20;99.90;;;;;;5053058;28;20102;-70
2021/06/21 01:33:51;;;;;;;11.40;10.10;;;20.20;99.90;;;;;;5053175;28;20386;-70
2021/06/21 01:36:19;;;;;;;14.60;10.48;;;20.10;99.90;;;;;;5051616;28;20043;-70
2021/06/21 01:38:50;;;;;;;12.43;10.32;;;20.00;99.90;;;;;;5053115;28;20505;-70
2021/06/21 01:41:22;;;;;;;14.70;10.13;;;20.00;99.90;;;;;;5047873;28;20593;-71
2021/06/21 01:43:49;;;;;;;;;;;20.00;99.90;;;;;;5053662;28;20027;-70
2021/06/21 01:46:18;;;;;;;11.00;9.73;;;20.00;99.90;;;;;;5052347;28;19919;-70
2021/06/21 01:48:50;;;;;;;12.38;9.85;;;19.90;99.90;;;;;;5052945;28;20047;-71
2021/06/21 01:51:18;;;;;;;15.25;9.95;;;19.90;99.90;;;;;;5052819;28;20032;-71
2021/06/21 01:53:47;;;;;;;11.68;10.52;;;19.90;99.90;;;;;;5052550;28;20111;-70
2021/06/21 01:56:20;;;;;;;12.40;11.10;;;19.90;99.90;;;;;;5046381;28;20029;-70
2021/06/21 01:58:49;;;;;;;16.25;11.23;;;19.90;99.90;;;;;;5051627;28;20021;-70
2021/06/21 02:01:17;;;;;;;12.20;10.40;;;19.80;99.90;;;;;;5032604;28;20037;-70
2021/06/21 02:03:54;;;;;;;15.25;10.57;;;19.80;99.90;;;;;;5032850;28;20017;-71
2021/06/21 02:06:22;;;;;;;13.75;10.93;;;19.70;99.90;;;;;;5032470;28;20035;-70
2021/06/21 02:08:51;;;;;;;12.27;10.93;;;19.70;99.90;;;;;;5048704;28;20028;-70
2021/06/21 02:11:18;;;;;;;11.10;9.98;;;19.70;99.90;;;;;;5031795;28;20026;-70
2021/06/21 02:13:44;;;;;;;15.07;11.50;;;19.60;99.90;;;;;;5038696;28;20138;-70
2021/06/21 02:16:11;;;;;;;15.50;10.98;;;19.60;99.90;;;;;;5044852;28;20367;-71
2021/06/21 02:18:36;;;;;;;14.40;11.13;;;19.60;99.90;;;;;;5051664;28;20025;-70
2021/06/21 02:21:03;;;;;;;13.10;11.13;;;19.50;99.90;;;;;;5050323;28;20025;-71
2021/06/21 02:23:30;;;;;;;15.15;11.90;;;19.50;99.90;;;;;;5052566;28;20104;-71
2021/06/21 02:26:00;;;;;;;15.85;11.35;;;19.50;99.90;;;;;;5052557;28;20036;-71
2021/06/21 02:28:27;;;;;;;14.27;11.40;;;19.50;99.90;;;;;;5038003;28;20568;-70
2021/06/21 02:30:57;;;;;;;14.50;10.45;;;19.50;99.90;;;;;;5031393;28;20479;-70
2021/06/21 02:33:22;;;;;;;14.65;11.77;;;19.40;99.90;;;;;;5032606;28;20029;-70
2021/06/21 02:35:48;;;;;;;15.95;10.82;;;19.50;99.90;;;;;;5032583;28;20033;-70
2021/06/21 02:38:14;;;;;;;13.85;11.40;;;19.40;99.90;;;;;;5032388;28;20025;-71
2021/06/21 02:40:41;;;;;;;14.35;10.98;;;19.40;99.90;;;;;;5050448;28;20029;-71
2021/06/21 02:43:06;;;;;;;16.65;12.02;;;19.40;99.90;;;;;;5032412;28;20486;-70
2021/06/21 02:45:33;;;;;;;22.63;12.18;;;19.40;99.90;;;;;;5039246;28;20025;-70
2021/06/21 02:47:59;;;;;;;19.50;10.88;;;19.40;99.90;;;;;;5052396;28;20528;-71
2021/06/21 02:50:25;;;;;;;14.02;11.20;;;19.40;99.90;;;;;;5052271;28;20021;-70
2021/06/21 02:52:53;;;;;;;14.43;11.50;;;19.40;99.90;;;;;;5052270;28;20071;-71
2021/06/21 02:55:30;;;;;;;16.65;11.80;;;19.40;99.90;;;;;;5050424;28;20040;-70
2021/06/21 02:58:07;;;;;;;14.07;10.85;;;19.40;99.90;;;;;;5031199;28;20079;-71
2021/06/21 03:00:34;;;;;;;12.65;11.10;;;19.40;99.90;;;;;;5037457;28;20108;-70
2021/06/21 03:03:00;;;;;;;12.43;10.95;;;19.50;99.90;;;;;;5052191;28;20056;-70
2021/06/21 03:05:28;;;;;;;13.52;11.10;;;19.50;99.90;;;;;;5052159;28;20433;-70
2021/06/21 03:07:56;;;;;;;13.30;10.70;;;19.50;99.90;;;;;;5052078;28;20075;-70
2021/06/21 03:10:23;;;;;;;13.05;11.18;;;19.60;99.90;;;;;;5051495;28;20025;-70
2021/06/21 03:12:49;;;;;;;12.68;10.30;;;19.60;99.90;;;;;;5054595;28;20029;-70
2021/06/21 03:15:19;;;;;;;14.52;10.68;;;19.60;99.90;;;;;;5055440;28;20386;-72
2021/06/21 03:17:45;;;;;;;14.13;11.15;;;19.60;99.90;;;;;;5055590;28;20033;-70
2021/06/21 03:20:12;;;;;;;12.50;10.10;;;19.60;99.90;;;;;;5055547;28;20025;-70
2021/06/21 03:22:39;;;;;;;13.27;10.57;;;19.70;99.90;;;;;;5054088;28;20493;-71
2021/06/21 03:25:06;;;;;;;11.68;10.38;;;19.80;99.90;;;;;;5055477;28;20017;-70
2021/06/21 03:27:35;;;;;;;13.07;10.88;;;19.90;99.90;;;;;;5055496;28;20501;-71
2021/06/21 03:30:09;;;;;;;11.48;9.65;;;20.00;99.90;;;;;;5054015;28;20115;-71
2021/06/21 03:32:37;;;;;;;11.43;9.90;;;20.10;99.90;;;;;;5054166;28;20021;-71
2021/06/21 03:35:07;;;;;;;17.05;9.88;;;20.20;99.90;;;;;;5054049;28;20048;-71
2021/06/21 03:37:32;;;;;;;12.63;9.68;;;20.30;99.90;;;;;;5036413;28;20013;-71
2021/06/21 03:39:58;;;;;;;12.68;10.35;;;20.40;99.90;;;;;;5053166;28;20490;-71
2021/06/21 03:42:24;;;;;;;10.45;9.45;;;20.60;99.90;;;;;;5055026;28;20037;-72
2021/06/21 03:44:51;;;;;;;12.10;10.15;;;20.60;99.90;;;;;;5055099;28;20033;-71
2021/06/21 03:47:17;;;;;;;11.90;8.80;;;20.70;99.90;;;;;;5053803;28;20032;-72
2021/06/21 03:49:46;;;;;;;17.15;9.45;;;20.80;99.90;;;;;;5055130;28;20434;-71
2021/06/21 03:52:12;;;;;;;10.93;9.52;;;20.80;99.90;;;;;;5054989;28;20024;-71
2021/06/21 03:54:37;;;;;;;11.93;9.05;;;21.00;99.90;;;;;;5054243;28;20029;-71
2021/06/21 03:57:05;;;;;;;11.55;9.02;;;21.00;99.90;;;;;;5054928;28;20017;-72
2021/06/21 03:59:30;;;;;;;15.13;9.18;;;21.10;99.90;;;;;;5054877;28;20375;-71
2021/06/21 04:01:57;;;;;;;13.35;8.80;;;21.20;99.90;;;;;;5054869;28;20043;-72
2021/06/21 04:04:23;;;;;;;13.07;9.65;;;21.30;99.90;;;;;;5053448;28;20025;-71
2021/06/21 04:06:49;;;;;;;12.32;8.75;;;21.40;99.90;;;;;;5053591;28;20108;-72
2021/06/21 04:09:15;;;;;;;13.07;8.90;;;21.50;99.90;;;;;;5052583;28;20107;-73
2021/06/21 04:11:41;;;;;;;10.82;8.63;;;21.60;99.90;;;;;;5039598;28;20079;-72
2021/06/21 04:14:06;;;;;;;14.40;9.25;;;21.60;99.90;;;;;;5049700;28;20029;-71
2021/06/21 04:16:33;;;;;;;10.60;8.70;;;21.70;99.90;;;;;;5047269;28;20471;-72
2021/06/21 04:18:58;;;;;;;10.68;9.10;;;21.80;99.90;;;;;;5033655;28;20025;-71
2021/06/21 04:21:25;;;;;;;9.48;8.52;;;21.80;99.90;;;;;;5034362;28;20037;-71
2021/06/21 04:23:51;;;;;;;12.07;8.38;;;21.90;99.40;;;;;;5032221;28;20036;-72
2021/06/21 04:26:16;;;;;;;10.93;8.95;;;21.90;99.20;;;;;;5034261;28;20446;-73
2021/06/21 04:28:43;;;;;;;18.67;9.25;;;22.00;99.80;;;;;;5034449;28;20022;-72
2021/06/21 04:31:09;;;;;;;12.88;8.48;;;22.10;99.90;;;;;;5033024;28;20029;-71
2021/06/21 04:33:34;;;;;;;9.77;8.77;;;22.20;97.30;;;;;;5033110;28;20029;-72
2021/06/21 04:36:00;;;;;;;9.32;8.43;;;22.30;96.80;;;;;;5034250;28;20029;-71
2021/06/21 04:38:26;;;;;;;8.25;7.45;;;22.40;96.00;;;;;;5034269;28;20028;-73
2021/06/21 04:40:52;;;;;;;9.60;7.72;;;22.50;94.90;;;;;;5047045;28;20390;-71
2021/06/21 04:43:19;;;;;;;9.48;8.45;;;22.50;95.50;;;;;;5053550;28;20029;-72
2021/06/21 04:45:45;;;;;;;9.80;7.82;;;22.60;95.20;;;;;;5054094;28;20037;-71
2021/06/21 04:48:12;;;;;;;8.50;7.70;;;22.70;93.80;;;;;;5053885;28;20067;-72
2021/06/21 04:50:39;;;;;;;8.65;7.53;;;22.80;92.50;;;;;;5053973;28;20039;-72
2021/06/21 04:53:05;;;;;;;8.73;7.80;;;22.90;93.30;;;;;;5053858;28;20108;-72
2021/06/21 04:55:31;;;;;;;33.50;10.57;;;22.90;91.30;;;;;;5052230;28;20043;-72
2021/06/21 04:57:57;;;;;;;9.02;7.63;;;23.00;91.90;;;;;;5033848;28;20025;-72
2021/06/21 05:00:25;;;;;;;12.65;7.82;;;23.10;90.40;;;;;;5033780;28;20025;-72
2021/06/21 05:02:51;;;;;;;11.88;8.27;;;23.10;89.20;;;;;;5033810;28;20112;-72
2021/06/21 05:05:19;;;;;;;10.65;7.18;;;23.00;88.90;;;;;;5036234;28;20124;-72
2021/06/21 05:07:49;;;;;;;15.82;7.97;;;23.00;88.70;;;;;;5036259;28;20508;-72
2021/06/21 05:10:17;;;;;;;11.23;7.13;;;23.00;89.30;;;;;;5043672;28;20482;-72
2021/06/21 05:12:44;;;;;;;11.90;7.65;;;23.00;88.20;;;;;;5036866;28;20040;-72
2021/06/21 05:15:10;;;;;;;13.15;7.00;;;22.90;88.80;;;;;;5052049;28;20017;-71
2021/06/21 05:17:36;;;;;;;9.65;6.47;;;22.90;86.60;;;;;;5053462;28;20025;-72
2021/06/21 05:20:04;;;;;;;14.93;5.90;;;22.80;86.90;;;;;;5052076;28;20032;-71
2021/06/21 05:22:30;;;;;;;9.18;6.10;;;23.00;85.30;;;;;;5053287;28;20056;-72
2021/06/21 05:24:57;;;;;;;7.63;6.50;;;23.00;84.40;;;;;;5052599;28;20027;-72
2021/06/21 05:27:23;;;;;;;11.77;6.78;;;23.00;83.40;;;;;;5045356;28;20025;-72
2021/06/21 05:29:49;;;;;;;15.23;7.10;;;23.10;83.20;;;;;;5053107;28;20025;-71
2021/06/21 05:32:15;;;;;;;12.13;6.78;;;23.10;83.60;;;;;;5052349;28;20049;-72
2021/06/21 05:34:40;;;;;;;14.65;6.82;;;23.20;81.90;;;;;;5049787;28;20025;-72
2021/06/21 05:37:06;;;;;;;12.23;6.65;;;23.30;81.80;;;;;;5053066;28;20471;-72
2021/06/21 05:39:32;;;;;;;12.40;6.35;;;23.30;80.10;;;;;;5052725;28;20025;-72
2021/06/21 05:41:57;;;;;;;11.27;5.60;;;23.40;78.10;;;;;;5044573;28;20029;-72
2021/06/21 05:44:23;;;;;;;13.93;5.93;;;23.40;77.40;;;;;;5038600;28;20032;-72
2021/06/21 05:46:49;;;;;;;10.65;6.25;;;23.50;77.70;;;;;;5030857;28;20036;-72
2021/06/21 05:49:14;;;;;;;15.27;6.95;;;23.50;77.90;;;;;;5029537;28;20022;-73
2021/06/21 05:51:40;;;;;;;11.10;6.22;;;23.50;76.20;;;;;;5052152;28;20445;-73
2021/06/21 05:54:06;;;;;;;14.65;6.75;;;23.50;77.00;;;;;;5048377;28;20065;-72
2021/06/21 05:56:31;;;;;;;20.73;7.50;;;23.60;77.20;;;;;;5030317;28;20395;-72
2021/06/21 05:58:58;;;;;;;11.50;6.55;;;23.60;76.30;;;;;;5034942;28;20538;-72
2021/06/21 06:01:24;;;;;;;8.85;6.45;;;23.60;75.00;;;;;;5031962;28;20040;-72
2021/06/21 06:03:51;;;;;;;11.32;6.35;;;23.80;75.40;;;;;;5039198;28;20021;-72
2021/06/21 06:06:16;;;;;;;10.75;5.55;;;23.80;73.60;;;;;;5044655;28;20029;-72
2021/06/21 06:08:42;;;;;;;15.38;7.03;;;23.90;73.10;;;;;;5047563;28;20221;-72
2021/06/21 06:11:08;;;;;;;9.40;5.93;;;24.00;73.70;;;;;;5042415;28;20030;-72
2021/06/21 06:13:35;;;;;;;10.80;4.95;;;24.10;71.80;;;;;;5037059;28;20051;-72
2021/06/21 06:16:00;;;;;;;9.45;5.50;;;24.20;70.60;;;;;;5035773;28;20171;-72
2021/06/21 06:18:26;;;;;;;15.88;6.28;;;24.30;67.50;;;;;;5037570;28;20112;-73
2021/06/21 06:20:52;;;;;;;14.13;5.85;;;24.30;68.40;;;;;;5038471;28;20025;-72
2021/06/21 06:23:17;;;;;;;10.73;5.07;;;24.50;70.30;;;;;;5038482;28;20037;-72
2021/06/21 06:25:43;;;;;;;10.77;4.78;;;24.60;65.90;;;;;;5040308;28;20489;-72
2021/06/21 06:28:09;;;;;;;9.48;5.10;;;24.80;64.00;;;;;;5034406;28;20049;-73
2021/06/21 06:30:35;;;;;;;10.07;5.13;;;24.70;64.50;;;;;;5040387;28;20044;-72
2021/06/21 06:33:01;;;;;;;10.95;5.10;;;24.80;64.50;;;;;;5030535;28;20544;-73
2021/06/21 06:35:27;;;;;;;12.02;5.63;;;24.90;64.00;;;;;;5034136;28;20104;-72
2021/06/21 06:37:52;;;;;;;10.32;5.50;;;24.90;64.70;;;;;;5029897;28;20108;-72
2021/06/21 06:40:18;;;;;;;11.95;5.40;;;25.10;64.90;;;;;;5029273;28;20045;-72
2021/06/21 06:42:45;;;;;;;12.98;5.47;;;25.30;65.80;;;;;;5034459;28;20509;-73
2021/06/21 06:45:12;;;;;;;8.95;4.68;;;25.30;62.10;;;;;;5031037;28;20032;-72
2021/06/21 06:47:38;;;;;;;12.98;5.00;;;25.30;62.20;;;;;;5032379;28;20061;-73
2021/06/21 06:50:05;;;;;;;10.85;5.13;;;25.50;61.80;;;;;;5031798;28;20103;-72
2021/06/21 06:52:32;;;;;;;10.85;4.90;;;25.60;61.20;;;;;;5031428;28;20049;-72
2021/06/21 06:57:33;;;;;;;10.77;5.20;;;25.50;60.60;;;;;;5033065;28;20037;-72
2021/06/21 06:59:59;;;;;;;5.47;4.05;;;25.70;61.70;;;;;;5030032;28;20040;-72
2021/06/21 07:02:25;;;;;;;8.90;4.32;;;25.70;61.00;;;;;;5043606;28;20045;-73
2021/06/21 07:04:51;;;;;;;9.35;4.32;;;25.80;60.10;;;;;;5052945;28;20025;-72
2021/06/21 07:07:18;;;;;;;9.48;4.55;;;25.80;59.30;;;;;;5052535;28;20502;-73
2021/06/21 07:09:44;;;;;;;13.63;5.45;;;25.90;59.40;;;;;;5053037;28;20028;-72
2021/06/21 07:12:10;;;;;;;10.35;5.10;;;25.90;60.70;;;;;;5042370;28;20400;-73
2021/06/21 07:14:37;;;;;;;10.13;5.20;;;26.00;61.50;;;;;;5034242;28;20028;-72
2021/06/21 07:17:03;;;;;;;9.88;4.18;;;26.00;61.20;;;;;;5038375;28;20391;-72
2021/06/21 07:19:29;;;;;;;11.18;5.15;;;26.20;60.00;;;;;;5038046;28;20028;-72
2021/06/21 07:21:55;;;;;;;9.50;5.10;;;26.30;60.10;;;;;;5053266;28;20087;-72
2021/06/21 07:24:21;;;;;;;7.80;5.22;;;26.30;59.10;;;;;;5054027;28;20017;-72
2021/06/21 07:26:48;;;;;;;7.97;4.50;;;26.50;58.80;;;;;;5069635;28;20043;-73
2021/06/21 07:29:14;;;;;;;8.70;4.78;;;26.50;58.10;;;;;;5054223;28;20047;-72
2021/06/21 07:31:40;;;;;;;10.60;4.85;;;26.70;58.70;;;;;;5069654;28;20479;-72
2021/06/21 07:34:06;;;;;;;13.15;4.88;;;26.80;56.80;;;;;;5052581;28;20074;-72
2021/06/21 07:36:32;;;;;;;10.55;4.55;;;26.80;56.40;;;;;;5053939;28;20021;-73
2021/06/21 07:38:57;;;;;;;9.73;4.15;;;26.80;56.10;;;;;;5034272;28;20112;-72
2021/06/21 07:41:23;;;;;;;9.38;5.05;;;26.90;56.50;;;;;;5040981;28;20127;-73
2021/06/21 07:43:50;;;;;;;9.98;4.63;;;27.00;57.50;;;;;;5034055;28;20030;-72
2021/06/21 07:46:17;;;;;;;12.15;4.72;;;27.10;57.70;;;;;;5033908;28;20482;-72
2021/06/21 07:48:43;;;;;;;11.90;4.82;;;27.00;57.10;;;;;;5034078;28;20411;-72
2021/06/21 07:51:10;;;;;;;11.02;5.00;;;26.90;56.30;;;;;;5035701;28;20040;-72
2021/06/21 07:53:37;;;;;;;8.48;4.45;;;27.00;57.80;;;;;;5034052;28;20501;-72
2021/06/21 07:56:05;;;;;;;11.40;4.53;;;27.00;57.00;;;;;;5032699;28;20029;-72
2021/06/21 07:58:31;;;;;;;8.70;4.28;;;27.20;56.50;;;;;;5040999;28;20029;-72
2021/06/21 08:00:57;;;;;;;12.95;5.30;;;27.10;56.00;;;;;;5068919;28;20021;-72
2021/06/21 08:03:23;;;;;;;9.15;4.95;;;27.20;54.90;;;;;;5053642;28;20398;-72
2021/06/21 08:05:50;;;;;;;7.40;3.90;;;27.40;55.70;;;;;;5052145;28;20025;-72
2021/06/21 08:08:16;;;;;;;9.65;4.18;;;27.20;54.70;;;;;;5036393;28;20025;-73
2021/06/21 08:10:42;;;;;;;7.43;4.30;;;27.30;54.50;;;;;;5033558;28;20030;-72
2021/06/21 08:13:08;;;;;;;12.77;4.25;;;27.50;54.70;;;;;;5032916;28;20104;-72
2021/06/21 08:15:34;;;;;;;11.18;4.30;;;27.80;54.60;;;;;;5045961;28;20036;-72
2021/06/21 08:18:00;;;;;;;14.55;4.78;;;27.90;54.30;;;;;;5034391;28;20021;-73
2021/06/21 08:20:26;;;;;;;10.77;4.32;;;28.00;53.10;;;;;;5033394;28;20087;-72
2021/06/21 08:22:51;;;;;;;11.05;4.07;;;27.90;52.40;;;;;;5033211;28;20105;-72
2021/06/21 08:25:17;;;;;;;8.80;4.97;;;27.80;52.20;;;;;;5033156;28;20432;-72
2021/06/21 08:27:43;;;;;;;7.45;3.35;;;28.00;52.80;;;;;;5033542;28;20076;-73
2021/06/21 08:30:11;;;;;;;6.03;3.92;;;28.00;51.80;;;;;;5032679;28;20060;-72
2021/06/21 08:32:38;;;;;;;7.68;3.78;;;28.10;52.20;;;;;;5033124;28;20022;-72
2021/06/21 08:35:06;;;;;;;7.45;2.72;;;28.30;52.00;;;;;;5031674;28;20475;-72
2021/06/21 08:37:31;;;;;;;8.60;3.22;;;28.30;51.20;;;;;;5031594;28;20028;-72
2021/06/21 08:39:57;;;;;;;10.75;3.78;;;28.40;51.70;;;;;;5034019;28;20391;-72
2021/06/21 08:42:23;;;;;;;12.30;3.35;;;28.50;51.10;;;;;;5067990;28;20041;-72
2021/06/21 08:44:49;;;;;;;10.35;3.33;;;28.60;50.90;;;;;;5034208;28;20033;-72
2021/06/21 08:47:19;;;;;;;6.53;2.92;;;28.50;50.20;;;;;;5040014;28;20100;-73
2021/06/21 08:49:47;;;;;;;8.43;3.35;;;28.70;50.20;;;;;;5054118;28;20112;-72
2021/06/21 08:52:15;;;;;;;5.70;3.75;;;29.00;50.60;;;;;;5053826;28;20032;-72
2021/06/21 08:54:41;;;;;;;7.32;3.17;;;28.90;48.80;;;;;;5053745;28;20048;-72
2021/06/21 08:57:07;;;;;;;3.70;2.28;;;29.00;49.00;;;;;;5052507;28;20017;-72
2021/06/21 08:59:33;;;;;;;9.30;2.83;;;29.20;48.50;;;;;;5053599;28;20027;-72
2021/06/21 09:01:59;;;;;;;6.43;2.70;;;29.30;46.60;;;;;;5052251;28;20033;-73
2021/06/21 09:04:25;;;;;;;7.13;3.63;;;29.50;46.50;;;;;;5051914;28;20490;-72
2021/06/21 09:06:50;;;;;;;6.47;2.88;;;29.50;46.80;;;;;;5053151;28;20406;-72
2021/06/21 09:09:16;;;;;;;8.30;3.97;;;29.40;46.30;;;;;;5034268;28;20033;-72
2021/06/21 09:11:45;;;;;;;8.90;2.50;;;29.40;45.70;;;;;;5033687;28;20546;-72
2021/06/21 09:14:26;;;;;;;5.75;2.78;;;29.50;45.90;;;;;;5047016;28;20547;-72
2021/06/21 09:16:55;;;;;;;7.28;3.53;;;29.40;46.10;;;;;;5051935;28;20033;-73
2021/06/21 09:19:21;;;;;;;8.32;3.55;;;29.50;46.80;;;;;;5053311;28;20013;-72
2021/06/21 09:21:47;;;;;;;19.38;4.35;;;29.50;45.70;;;;;;5053392;28;20033;-72
2021/06/21 09:24:20;;;;;;;67.28;11.25;;;29.60;45.70;;;;;;5053239;28;20565;-72
2021/06/21 09:26:49;;;;;;;10.13;3.45;;;29.80;45.60;;;;;;5052387;28;20029;-72
2021/06/21 09:29:15;;;;;;;6.45;3.20;;;29.90;46.20;;;;;;5041617;28;20438;-73
2021/06/21 09:31:48;;;;;;;29.63;5.65;;;29.90;46.20;;;;;;5051800;28;20031;-72
2021/06/21 09:34:15;;;;;;;9.63;3.92;;;30.00;45.90;;;;;;5040441;28;20601;-72
2021/06/21 09:36:41;;;;;;;38.50;8.80;;;30.00;46.40;;;;;;5031925;28;20053;-73
2021/06/21 09:39:23;;;;;;;13.45;4.00;;;30.10;46.10;;;;;;5033065;28;20096;-72
2021/06/21 09:42:12;;;;;;;10.32;3.38;;;30.20;44.40;;;;;;5031909;28;20029;-72
2021/06/21 09:44:43;;;;;;;8.38;3.40;;;30.20;43.60;;;;;;5044828;28;20028;-72
2021/06/21 09:47:14;;;;;;;7.18;2.95;;;30.00;43.30;;;;;;5051511;28;20025;-72
2021/06/21 09:49:52;;;;;;;8.63;3.03;;;30.10;43.80;;;;;;5052996;28;20029;-73
2021/06/21 09:52:40;;;;;;;4.47;3.20;;;29.90;43.40;;;;;;5052927;28;20056;-72
2021/06/21 09:55:17;;;;;;;7.55;3.60;;;29.90;43.50;;;;;;5051589;28;20382;-72
2021/06/21 09:57:44;;;;;;;12.43;3.47;;;30.00;44.90;;;;;;5053002;28;20095;-72
2021/06/21 10:00:12;;;;;;;6.53;3.00;;;30.10;44.50;;;;;;5045260;28;20055;-72
2021/06/21 10:02:39;;;;;;;12.35;3.80;;;30.10;45.00;;;;;;5032882;28;20080;-72
2021/06/21 10:05:19;;;;;;;8.40;3.65;;;30.30;45.40;;;;;;5032799;28;20101;-72
2021/06/21 10:07:45;;;;;;;6.00;3.42;;;30.60;45.10;;;;;;5047873;28;20017;-72
2021/06/21 10:10:15;;;;;;;6.85;3.00;;;30.40;44.50;;;;;;5052091;28;20533;-72
2021/06/21 10:12:41;;;;;;;4.72;3.13;;;30.30;43.60;;;;;;5052882;28;20017;-70
2021/06/21 10:15:10;;;;;;;11.05;3.80;;;30.40;44.30;;;;;;5052445;28;20116;-70
2021/06/21 10:17:36;;;;;;;9.20;3.28;;;30.40;44.70;;;;;;5051307;28;20033;-70
2021/06/21 10:20:04;;;;;;;5.32;2.42;;;30.30;44.80;;;;;;5052440;28;20032;-70
2021/06/21 10:22:29;;;;;;;9.30;3.67;;;30.40;44.90;;;;;;5056380;28;20076;-70
2021/06/21 10:24:56;;;;;;;13.73;3.28;;;30.60;44.50;;;;;;5056733;28;20409;-71
2021/06/21 10:27:24;;;;;;;7.80;2.97;;;30.30;43.80;;;;;;5056634;28;20025;-70
2021/06/21 10:29:51;;;;;;;7.95;3.28;;;30.40;44.30;;;;;;5056302;28;20029;-70
2021/06/21 10:32:18;;;;;;;9.00;2.55;;;30.50;44.70;;;;;;5055061;28;20029;-70
2021/06/21 10:34:48;;;;;;;8.45;2.50;;;30.60;43.70;;;;;;5056550;28;20025;-70
2021/06/21 10:37:25;;;;;;;4.25;2.95;;;30.60;42.20;;;;;;5056300;28;20025;-71
2021/06/21 10:40:00;;;;;;;5.22;2.88;;;30.60;43.60;;;;;;5056857;28;20021;-70
2021/06/21 10:42:27;;;;;;;5.47;2.95;;;30.40;45.10;;;;;;5056329;28;20375;-71
2021/06/21 10:44:58;;;;;;;5.15;2.60;;;30.40;46.10;;;;;;5055130;28;20032;-70
2021/06/21 10:47:30;;;;;;;9.38;3.72;;;30.40;45.40;;;;;;5055048;28;20079;-70
2021/06/21 10:50:05;;;;;;;6.15;3.30;;;30.50;46.40;;;;;;5055950;28;20021;-71
2021/06/21 10:52:38;;;;;;;4.85;2.80;;;30.60;45.20;;;;;;5056275;28;20398;-70
2021/06/21 10:55:22;;;;;;;8.68;2.92;;;30.50;45.60;;;;;;5055836;28;20094;-70
2021/06/21 10:57:55;;;;;;;11.88;3.25;;;30.50;45.50;;;;;;5056231;28;20032;-71
2021/06/21 11:00:31;;;;;;;9.77;3.40;;;30.60;44.40;;;;;;5045515;28;20095;-70
2021/06/21 11:02:56;;;;;;;6.68;2.80;;;30.30;44.40;;;;;;5034797;28;20041;-70
2021/06/21 11:05:35;;;;;;;6.35;2.42;;;30.60;45.00;;;;;;5035991;28;20025;-70
2021/06/21 11:08:21;;;;;;;7.15;2.80;;;30.60;44.60;;;;;;5051256;28;20036;-70
2021/06/21 11:10:49;;;;;;;10.93;2.92;;;30.60;44.90;;;;;;5034566;28;20112;-70
2021/06/21 11:13:39;;;;;;;7.10;2.60;;;30.70;43.60;;;;;;5036954;28;20029;-70
2021/06/21 11:16:14;;;;;;;7.72;2.70;;;30.40;43.00;;;;;;5055736;28;20025;-70
2021/06/21 11:18:40;;;;;;;7.60;2.53;;;30.40;44.80;;;;;;5054203;28;20108;-72
2021/06/21 11:21:18;;;;;;;6.15;2.72;;;30.40;44.30;;;;;;5055548;28;20035;-70
2021/06/21 11:23:49;;;;;;;5.05;2.88;;;30.60;44.70;;;;;;5055731;28;20116;-70
2021/06/21 11:26:15;;;;;;;6.70;3.00;;;30.60;44.80;;;;;;5055540;28;20052;-70
2021/06/21 11:28:41;;;;;;;6.97;2.75;;;30.80;44.00;;;;;;5054743;28;20572;-71
2021/06/21 11:31:22;;;;;;;6.88;2.25;;;30.90;43.30;;;;;;5055383;28;20391;-70
2021/06/21 11:34:06;;;;;;;6.82;3.17;;;30.90;43.00;;;;;;5053510;28;20025;-70
2021/06/21 11:36:44;;;;;;;5.75;2.67;;;30.80;43.70;;;;;;5054114;28;20098;-70
2021/06/21 11:39:30;;;;;;;6.60;2.40;;;30.80;43.10;;;;;;5055318;28;20028;-70
2021/06/21 11:42:02;;;;;;;5.75;2.30;;;30.80;43.10;;;;;;5054949;28;20029;-70
2021/06/21 11:44:48;;;;;;;;;;;30.80;43.70;;;;;;5053999;28;20020;-71
2021/06/21 11:47:14;;;;;;;10.18;2.40;;;31.00;43.60;;;;;;5055209;28;19905;-71
2021/06/21 11:49:45;;;;;;;6.60;2.47;;;30.90;42.50;;;;;;5054874;28;20037;-71
2021/06/21 11:52:19;;;;;;;8.95;3.20;;;31.00;42.20;;;;;;5055062;28;20360;-71
2021/06/21 11:54:46;;;;;;;4.13;2.78;;;31.00;43.00;;;;;;5055084;28;20174;-71
2021/06/21 11:57:13;;;;;;;5.75;2.25;;;31.20;42.40;;;;;;5054024;28;20022;-70
2021/06/21 11:59:47;;;;;;;4.78;2.20;;;31.20;41.70;;;;;;5041531;28;20030;-71
2021/06/21 12:02:16;;;;;;;9.18;2.53;;;31.10;42.60;;;;;;5043365;28;20033;-71
2021/06/21 12:04:43;;;;;;;7.72;3.15;;;30.90;42.90;;;;;;5055008;28;20114;-71
2021/06/21 12:07:26;;;;;;;6.47;2.85;;;31.00;43.60;;;;;;5054832;28;20467;-70
2021/06/21 12:09:53;;;;;;;7.70;2.78;;;31.10;43.30;;;;;;5054872;28;20025;-70
2021/06/21 12:12:24;;;;;;;9.43;2.58;;;30.90;41.90;;;;;;5054451;28;20013;-71
2021/06/21 12:14:50;;;;;;;7.47;2.53;;;30.90;41.50;;;;;;5054410;28;20104;-71
2021/06/21 12:17:24;;;;;;;4.78;2.85;;;30.70;41.60;;;;;;5053252;28;20049;-72
2021/06/21 12:20:04;;;;;;;7.47;2.53;;;30.70;42.10;;;;;;5053957;28;20029;-71
2021/06/21 12:22:30;;;;;;;7.57;2.67;;;30.60;41.30;;;;;;5054493;28;20045;-70
2021/06/21 12:24:56;;;;;;;7.93;2.42;;;30.70;42.20;;;;;;5054495;28;20386;-71
2021/06/21 12:27:21;;;;;;;8.32;2.40;;;30.90;42.30;;;;;;5048907;28;20041;-71
2021/06/21 12:29:47;;;;;;;5.90;2.90;;;30.90;42.00;;;;;;5054403;28;20040;-71
2021/06/21 12:32:15;;;;;;;7.80;2.92;;;31.10;43.10;;;;;;5054285;28;20355;-72
2021/06/21 12:34:43;;;;;;;5.03;3.13;;;31.00;42.70;;;;;;5053021;28;20482;-71
2021/06/21 12:37:16;;;;;;;6.45;2.45;;;31.10;42.30;;;;;;5054237;28;20021;-70
2021/06/21 12:39:43;;;;;;;10.23;2.88;;;30.80;42.00;;;;;;5044084;28;20021;-71
2021/06/21 12:42:11;;;;;;;22.20;3.97;;;30.80;42.90;;;;;;5041576;28;20029;-71
2021/06/21 12:44:38;;;;;;;9.95;2.75;;;31.10;41.60;;;;;;5040278;28;20376;-71
2021/06/21 12:47:27;;;;;;;9.68;2.63;;;31.00;40.40;;;;;;5049458;28;20112;-71